sensor_id;sensor_type;location;lat;lon;timestamp;P1;durP1;ratioP1;P2;durP2;ratioP2
305;SDS011;137;48.578;9.180;2022-08-21T00:00:02;2.30;;;2.10;;
305;SDS011;137;48.578;9.180;2022-08-21T00:02:32;2.20;;;2.03;;
305;SDS011;137;48.578;9.180;2022-08-21T00:04:59;2.07;;;1.80;;
305;SDS011;137;48.578;9.180;2022-08-21T00:07:27;2.57;;;2.37;;
305;SDS011;137;48.578;9.180;2022-08-21T00:09:54;2.13;;;1.80;;
305;SDS011;137;48.578;9.180;2022-08-21T00:12:22;3.80;;;2.00;;
305;SDS011;137;48.578;9.180;2022-08-21T00:14:48;3.57;;;2.00;;
305;SDS011;137;48.578;9.180;2022-08-21T00:17:16;3.70;;;1.90;;
305;SDS011;137;48.578;9.180;2022-08-21T00:19:43;2.20;;;2.00;;
305;SDS011;137;48.578;9.180;2022-08-21T00:22:10;3.40;;;2.27;;
305;SDS011;137;48.578;9.180;2022-08-21T00:24:38;2.50;;;2.30;;
305;SDS011;137;48.578;9.180;2022-08-21T00:27:05;2.90;;;2.30;;
305;SDS011;137;48.578;9.180;2022-08-21T00:29:32;2.73;;;2.53;;
305;SDS011;137;48.578;9.180;2022-08-21T00:31:59;2.10;;;1.90;;
305;SDS011;137;48.578;9.180;2022-08-21T00:34:25;2.47;;;1.90;;
305;SDS011;137;48.578;9.180;2022-08-21T00:36:52;2.20;;;2.00;;
305;SDS011;137;48.578;9.180;2022-08-21T00:39:19;2.40;;;1.97;;
305;SDS011;137;48.578;9.180;2022-08-21T00:41:47;2.53;;;2.33;;
305;SDS011;137;48.578;9.180;2022-08-21T00:44:14;2.77;;;2.07;;
305;SDS011;137;48.578;9.180;2022-08-21T00:46:42;3.53;;;2.07;;
305;SDS011;137;48.578;9.180;2022-08-21T00:49:10;2.83;;;2.10;;
305;SDS011;137;48.578;9.180;2022-08-21T00:51:39;2.20;;;2.00;;
305;SDS011;137;48.578;9.180;2022-08-21T00:54:08;4.87;;;2.53;;
305;SDS011;137;48.578;9.180;2022-08-21T00:56:37;3.13;;;2.87;;
305;SDS011;137;48.578;9.180;2022-08-21T00:59:05;2.50;;;2.30;;
305;SDS011;137;48.578;9.180;2022-08-21T01:01:33;2.60;;;2.40;;
305;SDS011;137;48.578;9.180;2022-08-21T01:04:00;2.37;;;2.17;;
305;SDS011;137;48.578;9.180;2022-08-21T01:06:26;3.13;;;2.33;;
305;SDS011;137;48.578;9.180;2022-08-21T01:08:53;2.30;;;2.10;;
305;SDS011;137;48.578;9.180;2022-08-21T01:11:20;2.27;;;2.07;;
305;SDS011;137;48.578;9.180;2022-08-21T01:13:47;2.70;;;2.30;;
305;SDS011;137;48.578;9.180;2022-08-21T01:16:19;2.33;;;2.10;;
305;SDS011;137;48.578;9.180;2022-08-21T01:18:48;2.30;;;1.90;;
305;SDS011;137;48.578;9.180;2022-08-21T01:21:18;2.60;;;2.40;;
305;SDS011;137;48.578;9.180;2022-08-21T01:23:48;3.23;;;2.33;;
305;SDS011;137;48.578;9.180;2022-08-21T01:26:18;3.20;;;2.37;;
305;SDS011;137;48.578;9.180;2022-08-21T01:28:49;2.97;;;2.77;;
305;SDS011;137;48.578;9.180;2022-08-21T01:31:21;3.50;;;1.90;;
305;SDS011;137;48.578;9.180;2022-08-21T01:33:50;3.03;;;2.70;;
305;SDS011;137;48.578;9.180;2022-08-21T01:36:18;3.10;;;2.90;;
305;SDS011;137;48.578;9.180;2022-08-21T01:38:45;2.57;;;2.37;;
305;SDS011;137;48.578;9.180;2022-08-21T01:41:12;2.40;;;2.20;;
305;SDS011;137;48.578;9.180;2022-08-21T01:43:40;2.73;;;2.27;;
305;SDS011;137;48.578;9.180;2022-08-21T01:46:07;2.77;;;2.57;;
305;SDS011;137;48.578;9.180;2022-08-21T01:48:34;2.90;;;2.70;;
305;SDS011;137;48.578;9.180;2022-08-21T01:51:01;3.73;;;2.83;;
305;SDS011;137;48.578;9.180;2022-08-21T01:53:30;2.97;;;2.70;;
305;SDS011;137;48.578;9.180;2022-08-21T01:55:58;3.47;;;2.57;;
305;SDS011;137;48.578;9.180;2022-08-21T01:58:26;2.57;;;2.37;;
305;SDS011;137;48.578;9.180;2022-08-21T02:00:53;3.10;;;2.90;;
305;SDS011;137;48.578;9.180;2022-08-21T02:03:20;4.07;;;2.30;;
305;SDS011;137;48.578;9.180;2022-08-21T02:05:46;3.97;;;3.10;;
305;SDS011;137;48.578;9.180;2022-08-21T02:08:13;3.07;;;2.50;;
305;SDS011;137;48.578;9.180;2022-08-21T02:10:41;2.50;;;2.30;;
305;SDS011;137;48.578;9.180;2022-08-21T02:13:08;3.07;;;2.40;;
305;SDS011;137;48.578;9.180;2022-08-21T02:15:35;3.37;;;3.10;;
305;SDS011;137;48.578;9.180;2022-08-21T02:18:02;2.83;;;2.63;;
305;SDS011;137;48.578;9.180;2022-08-21T02:20:33;3.10;;;2.80;;
305;SDS011;137;48.578;9.180;2022-08-21T02:23:01;3.10;;;2.90;;
305;SDS011;137;48.578;9.180;2022-08-21T02:25:29;5.03;;;2.97;;
305;SDS011;137;48.578;9.180;2022-08-21T02:27:58;3.00;;;2.80;;
305;SDS011;137;48.578;9.180;2022-08-21T02:30:26;4.97;;;2.63;;
305;SDS011;137;48.578;9.180;2022-08-21T02:32:55;3.20;;;2.67;;
305;SDS011;137;48.578;9.180;2022-08-21T02:35:22;2.73;;;2.53;;
305;SDS011;137;48.578;9.180;2022-08-21T02:37:50;3.47;;;2.80;;
305;SDS011;137;48.578;9.180;2022-08-21T02:40:21;2.70;;;2.50;;
305;SDS011;137;48.578;9.180;2022-08-21T02:42:50;3.50;;;3.20;;
305;SDS011;137;48.578;9.180;2022-08-21T02:45:18;3.40;;;2.60;;
305;SDS011;137;48.578;9.180;2022-08-21T02:47:48;5.03;;;2.93;;
305;SDS011;137;48.578;9.180;2022-08-21T02:50:17;4.00;;;3.70;;
305;SDS011;137;48.578;9.180;2022-08-21T02:52:46;3.13;;;2.93;;
305;SDS011;137;48.578;9.180;2022-08-21T02:55:14;4.43;;;3.63;;
305;SDS011;137;48.578;9.180;2022-08-21T02:57:41;3.33;;;2.83;;
305;SDS011;137;48.578;9.180;2022-08-21T03:00:08;3.27;;;3.07;;
305;SDS011;137;48.578;9.180;2022-08-21T03:02:39;3.87;;;3.27;;
305;SDS011;137;48.578;9.180;2022-08-21T03:05:06;4.90;;;3.17;;
305;SDS011;137;48.578;9.180;2022-08-21T03:07:35;5.17;;;3.90;;
305;SDS011;137;48.578;9.180;2022-08-21T03:10:02;3.20;;;3.00;;
305;SDS011;137;48.578;9.180;2022-08-21T03:12:30;4.20;;;3.53;;
305;SDS011;137;48.578;9.180;2022-08-21T03:14:56;3.87;;;3.57;;
305;SDS011;137;48.578;9.180;2022-08-21T03:17:23;3.80;;;3.50;;
305;SDS011;137;48.578;9.180;2022-08-21T03:19:52;4.10;;;3.40;;
305;SDS011;137;48.578;9.180;2022-08-21T03:22:19;5.20;;;3.20;;
305;SDS011;137;48.578;9.180;2022-08-21T03:24:46;5.23;;;3.77;;
305;SDS011;137;48.578;9.180;2022-08-21T03:27:13;3.90;;;3.60;;
305;SDS011;137;48.578;9.180;2022-08-21T03:29:40;3.63;;;3.17;;
305;SDS011;137;48.578;9.180;2022-08-21T03:32:07;3.80;;;3.50;;
305;SDS011;137;48.578;9.180;2022-08-21T03:34:34;3.53;;;3.23;;
305;SDS011;137;48.578;9.180;2022-08-21T03:37:03;3.23;;;2.93;;
305;SDS011;137;48.578;9.180;2022-08-21T03:39:31;3.30;;;3.10;;
305;SDS011;137;48.578;9.180;2022-08-21T03:41:57;3.53;;;3.23;;
305;SDS011;137;48.578;9.180;2022-08-21T03:44:25;4.30;;;3.50;;
305;SDS011;137;48.578;9.180;2022-08-21T03:46:53;3.70;;;3.40;;
305;SDS011;137;48.578;9.180;2022-08-21T03:49:21;4.20;;;3.10;;
305;SDS011;137;48.578;9.180;2022-08-21T03:51:48;3.60;;;3.30;;
305;SDS011;137;48.578;9.180;2022-08-21T03:54:16;3.53;;;3.23;;
305;SDS011;137;48.578;9.180;2022-08-21T03:56:43;4.00;;;3.60;;
305;SDS011;137;48.578;9.180;2022-08-21T03:59:10;3.80;;;3.50;;
305;SDS011;137;48.578;9.180;2022-08-21T04:01:37;4.53;;;4.10;;
305;SDS011;137;48.578;9.180;2022-08-21T04:04:04;4.33;;;4.03;;
305;SDS011;137;48.578;9.180;2022-08-21T04:06:32;4.63;;;3.57;;
305;SDS011;137;48.578;9.180;2022-08-21T04:08:59;4.80;;;4.33;;
305;SDS011;137;48.578;9.180;2022-08-21T04:11:27;3.83;;;3.53;;
305;SDS011;137;48.578;9.180;2022-08-21T04:13:54;3.70;;;3.40;;
305;SDS011;137;48.578;9.180;2022-08-21T04:16:21;4.13;;;3.73;;
305;SDS011;137;48.578;9.180;2022-08-21T04:18:48;4.40;;;4.10;;
305;SDS011;137;48.578;9.180;2022-08-21T04:21:14;3.47;;;3.20;;
305;SDS011;137;48.578;9.180;2022-08-21T04:23:41;4.10;;;3.47;;
305;SDS011;137;48.578;9.180;2022-08-21T04:26:08;3.80;;;3.50;;
305;SDS011;137;48.578;9.180;2022-08-21T04:28:36;4.20;;;3.90;;
305;SDS011;137;48.578;9.180;2022-08-21T04:31:03;4.23;;;3.40;;
305;SDS011;137;48.578;9.180;2022-08-21T04:33:30;3.43;;;3.13;;
305;SDS011;137;48.578;9.180;2022-08-21T04:35:57;6.77;;;4.10;;
305;SDS011;137;48.578;9.180;2022-08-21T04:38:24;4.27;;;3.10;;
305;SDS011;137;48.578;9.180;2022-08-21T04:40:51;3.27;;;3.07;;
305;SDS011;137;48.578;9.180;2022-08-21T04:43:18;4.70;;;3.80;;
305;SDS011;137;48.578;9.180;2022-08-21T04:45:48;2.97;;;2.77;;
305;SDS011;137;48.578;9.180;2022-08-21T04:48:16;4.30;;;3.67;;
305;SDS011;137;48.578;9.180;2022-08-21T04:50:47;4.27;;;3.40;;
305;SDS011;137;48.578;9.180;2022-08-21T04:53:18;4.07;;;3.63;;
305;SDS011;137;48.578;9.180;2022-08-21T04:55:49;3.93;;;3.47;;
305;SDS011;137;48.578;9.180;2022-08-21T04:58:18;4.30;;;3.90;;
305;SDS011;137;48.578;9.180;2022-08-21T05:00:50;4.20;;;3.90;;
305;SDS011;137;48.578;9.180;2022-08-21T05:03:20;5.70;;;5.30;;
305;SDS011;137;48.578;9.180;2022-08-21T05:05:47;6.10;;;5.60;;
305;SDS011;137;48.578;9.180;2022-08-21T05:08:15;6.23;;;5.83;;
305;SDS011;137;48.578;9.180;2022-08-21T05:10:45;9.00;;;6.20;;
305;SDS011;137;48.578;9.180;2022-08-21T05:13:12;5.37;;;4.97;;
305;SDS011;137;48.578;9.180;2022-08-21T05:15:39;6.60;;;4.17;;
305;SDS011;137;48.578;9.180;2022-08-21T05:18:08;3.43;;;3.23;;
305;SDS011;137;48.578;9.180;2022-08-21T05:20:35;3.70;;;3.40;;
305;SDS011;137;48.578;9.180;2022-08-21T05:23:05;3.40;;;3.20;;
305;SDS011;137;48.578;9.180;2022-08-21T05:25:33;4.03;;;3.60;;
305;SDS011;137;48.578;9.180;2022-08-21T05:28:01;3.83;;;3.53;;
305;SDS011;137;48.578;9.180;2022-08-21T05:30:28;4.17;;;3.87;;
305;SDS011;137;48.578;9.180;2022-08-21T05:32:55;4.20;;;3.80;;
305;SDS011;137;48.578;9.180;2022-08-21T05:35:25;4.57;;;4.17;;
305;SDS011;137;48.578;9.180;2022-08-21T05:37:52;4.20;;;3.90;;
305;SDS011;137;48.578;9.180;2022-08-21T05:40:19;4.57;;;4.17;;
305;SDS011;137;48.578;9.180;2022-08-21T05:42:46;4.10;;;3.80;;
305;SDS011;137;48.578;9.180;2022-08-21T05:45:13;3.60;;;3.30;;
305;SDS011;137;48.578;9.180;2022-08-21T05:47:40;4.40;;;4.00;;
305;SDS011;137;48.578;9.180;2022-08-21T05:50:07;4.97;;;3.90;;
305;SDS011;137;48.578;9.180;2022-08-21T05:52:35;4.17;;;3.67;;
305;SDS011;137;48.578;9.180;2022-08-21T05:55:02;4.70;;;4.07;;
305;SDS011;137;48.578;9.180;2022-08-21T05:57:30;3.47;;;3.20;;
305;SDS011;137;48.578;9.180;2022-08-21T05:59:57;4.43;;;4.03;;
305;SDS011;137;48.578;9.180;2022-08-21T06:02:23;4.57;;;4.17;;
305;SDS011;137;48.578;9.180;2022-08-21T06:04:50;5.10;;;4.17;;
305;SDS011;137;48.578;9.180;2022-08-21T06:07:17;3.67;;;3.37;;
305;SDS011;137;48.578;9.180;2022-08-21T06:09:45;4.37;;;4.00;;
305;SDS011;137;48.578;9.180;2022-08-21T06:12:12;4.47;;;4.07;;
305;SDS011;137;48.578;9.180;2022-08-21T06:14:39;3.10;;;2.90;;
305;SDS011;137;48.578;9.180;2022-08-21T06:17:08;3.23;;;2.90;;
305;SDS011;137;48.578;9.180;2022-08-21T06:19:36;3.80;;;3.50;;
305;SDS011;137;48.578;9.180;2022-08-21T06:22:03;4.47;;;4.07;;
305;SDS011;137;48.578;9.180;2022-08-21T06:24:30;4.90;;;4.50;;
305;SDS011;137;48.578;9.180;2022-08-21T06:27:03;4.17;;;3.77;;
305;SDS011;137;48.578;9.180;2022-08-21T06:29:30;3.80;;;2.87;;
305;SDS011;137;48.578;9.180;2022-08-21T06:31:57;4.27;;;3.00;;
305;SDS011;137;48.578;9.180;2022-08-21T06:34:24;3.40;;;3.10;;
305;SDS011;137;48.578;9.180;2022-08-21T06:36:51;3.40;;;2.80;;
305;SDS011;137;48.578;9.180;2022-08-21T06:39:18;3.13;;;2.90;;
305;SDS011;137;48.578;9.180;2022-08-21T06:41:45;2.90;;;2.70;;
305;SDS011;137;48.578;9.180;2022-08-21T06:44:15;3.13;;;2.70;;
305;SDS011;137;48.578;9.180;2022-08-21T06:46:42;2.60;;;2.40;;
305;SDS011;137;48.578;9.180;2022-08-21T06:49:09;3.90;;;2.70;;
305;SDS011;137;48.578;9.180;2022-08-21T06:51:36;2.80;;;2.50;;
305;SDS011;137;48.578;9.180;2022-08-21T06:54:03;2.67;;;2.40;;
305;SDS011;137;48.578;9.180;2022-08-21T06:56:30;3.83;;;3.50;;
305;SDS011;137;48.578;9.180;2022-08-21T06:58:58;2.90;;;2.70;;
305;SDS011;137;48.578;9.180;2022-08-21T07:01:26;3.53;;;2.87;;
305;SDS011;137;48.578;9.180;2022-08-21T07:03:53;2.63;;;2.33;;
305;SDS011;137;48.578;9.180;2022-08-21T07:06:20;2.60;;;2.40;;
305;SDS011;137;48.578;9.180;2022-08-21T07:08:47;2.50;;;2.30;;
305;SDS011;137;48.578;9.180;2022-08-21T07:11:14;3.20;;;2.13;;
305;SDS011;137;48.578;9.180;2022-08-21T07:13:44;3.50;;;2.23;;
305;SDS011;137;48.578;9.180;2022-08-21T07:16:11;3.83;;;3.37;;
305;SDS011;137;48.578;9.180;2022-08-21T07:18:40;4.60;;;2.17;;
305;SDS011;137;48.578;9.180;2022-08-21T07:21:07;3.00;;;2.17;;
305;SDS011;137;48.578;9.180;2022-08-21T07:23:36;2.50;;;2.30;;
305;SDS011;137;48.578;9.180;2022-08-21T07:26:04;2.93;;;2.13;;
305;SDS011;137;48.578;9.180;2022-08-21T07:28:31;6.00;;;2.33;;
305;SDS011;137;48.578;9.180;2022-08-21T07:30:58;3.93;;;2.90;;
305;SDS011;137;48.578;9.180;2022-08-21T07:33:28;3.10;;;2.77;;
305;SDS011;137;48.578;9.180;2022-08-21T07:35:58;2.37;;;1.80;;
305;SDS011;137;48.578;9.180;2022-08-21T07:38:25;3.27;;;3.07;;
305;SDS011;137;48.578;9.180;2022-08-21T07:40:52;2.43;;;2.23;;
305;SDS011;137;48.578;9.180;2022-08-21T07:43:23;3.00;;;2.70;;
305;SDS011;137;48.578;9.180;2022-08-21T07:45:50;2.47;;;2.27;;
305;SDS011;137;48.578;9.180;2022-08-21T07:48:19;2.33;;;2.13;;
305;SDS011;137;48.578;9.180;2022-08-21T07:50:46;2.70;;;2.27;;
305;SDS011;137;48.578;9.180;2022-08-21T07:53:14;3.20;;;2.03;;
305;SDS011;137;48.578;9.180;2022-08-21T07:55:42;6.37;;;2.27;;
305;SDS011;137;48.578;9.180;2022-08-21T07:58:08;2.30;;;2.03;;
305;SDS011;137;48.578;9.180;2022-08-21T08:00:35;3.30;;;3.00;;
305;SDS011;137;48.578;9.180;2022-08-21T08:03:02;4.93;;;2.20;;
305;SDS011;137;48.578;9.180;2022-08-21T08:05:29;6.40;;;2.53;;
305;SDS011;137;48.578;9.180;2022-08-21T08:07:57;4.90;;;3.20;;
305;SDS011;137;48.578;9.180;2022-08-21T08:10:26;3.07;;;1.90;;
305;SDS011;137;48.578;9.180;2022-08-21T08:12:53;5.07;;;3.03;;
305;SDS011;137;48.578;9.180;2022-08-21T08:15:21;3.80;;;2.60;;
305;SDS011;137;48.578;9.180;2022-08-21T08:17:49;3.83;;;2.90;;
305;SDS011;137;48.578;9.180;2022-08-21T08:20:17;3.13;;;2.83;;
305;SDS011;137;48.578;9.180;2022-08-21T08:22:46;4.03;;;2.73;;
305;SDS011;137;48.578;9.180;2022-08-21T08:25:13;4.90;;;3.07;;
305;SDS011;137;48.578;9.180;2022-08-21T08:27:43;3.00;;;2.80;;
305;SDS011;137;48.578;9.180;2022-08-21T08:30:10;5.67;;;3.50;;
305;SDS011;137;48.578;9.180;2022-08-21T08:32:38;4.70;;;2.70;;
305;SDS011;137;48.578;9.180;2022-08-21T08:35:06;3.87;;;2.50;;
305;SDS011;137;48.578;9.180;2022-08-21T08:37:35;3.97;;;2.70;;
305;SDS011;137;48.578;9.180;2022-08-21T08:40:05;4.63;;;2.40;;
305;SDS011;137;48.578;9.180;2022-08-21T08:42:34;4.43;;;3.33;;
305;SDS011;137;48.578;9.180;2022-08-21T08:45:04;3.60;;;2.47;;
305;SDS011;137;48.578;9.180;2022-08-21T08:47:34;2.90;;;2.27;;
305;SDS011;137;48.578;9.180;2022-08-21T08:50:05;3.37;;;2.77;;
305;SDS011;137;48.578;9.180;2022-08-21T08:52:36;3.77;;;2.40;;
305;SDS011;137;48.578;9.180;2022-08-21T08:55:14;4.07;;;2.80;;
305;SDS011;137;48.578;9.180;2022-08-21T08:57:45;5.67;;;2.77;;
305;SDS011;137;48.578;9.180;2022-08-21T09:00:17;4.27;;;2.53;;
305;SDS011;137;48.578;9.180;2022-08-21T09:02:46;4.87;;;3.67;;
305;SDS011;137;48.578;9.180;2022-08-21T09:05:17;2.70;;;2.50;;
305;SDS011;137;48.578;9.180;2022-08-21T09:07:51;4.03;;;2.77;;
305;SDS011;137;48.578;9.180;2022-08-21T09:10:37;4.70;;;3.00;;
305;SDS011;137;48.578;9.180;2022-08-21T09:13:12;3.23;;;2.37;;
305;SDS011;137;48.578;9.180;2022-08-21T09:15:48;7.53;;;3.10;;
305;SDS011;137;48.578;9.180;2022-08-21T09:18:25;3.93;;;3.10;;
305;SDS011;137;48.578;9.180;2022-08-21T09:21:07;3.47;;;2.63;;
305;SDS011;137;48.578;9.180;2022-08-21T09:23:43;3.30;;;3.00;;
305;SDS011;137;48.578;9.180;2022-08-21T09:26:17;3.83;;;2.63;;
305;SDS011;137;48.578;9.180;2022-08-21T09:28:46;4.70;;;3.13;;
305;SDS011;137;48.578;9.180;2022-08-21T09:31:22;6.57;;;3.00;;
305;SDS011;137;48.578;9.180;2022-08-21T09:33:56;5.70;;;3.33;;
305;SDS011;137;48.578;9.180;2022-08-21T09:36:25;2.80;;;2.50;;
305;SDS011;137;48.578;9.180;2022-08-21T09:39:00;3.90;;;2.40;;
305;SDS011;137;48.578;9.180;2022-08-21T09:41:27;7.00;;;2.63;;
305;SDS011;137;48.578;9.180;2022-08-21T09:43:56;5.37;;;2.97;;
305;SDS011;137;48.578;9.180;2022-08-21T09:46:25;4.40;;;3.00;;
305;SDS011;137;48.578;9.180;2022-08-21T09:48:54;5.67;;;3.70;;
305;SDS011;137;48.578;9.180;2022-08-21T09:51:24;5.63;;;3.50;;
305;SDS011;137;48.578;9.180;2022-08-21T09:53:53;4.40;;;3.30;;
305;SDS011;137;48.578;9.180;2022-08-21T09:56:26;4.90;;;3.33;;
305;SDS011;137;48.578;9.180;2022-08-21T09:59:19;3.20;;;2.37;;
305;SDS011;137;48.578;9.180;2022-08-21T10:01:53;4.27;;;2.87;;
305;SDS011;137;48.578;9.180;2022-08-21T10:04:22;4.30;;;3.10;;
305;SDS011;137;48.578;9.180;2022-08-21T10:06:50;4.87;;;2.17;;
305;SDS011;137;48.578;9.180;2022-08-21T10:09:18;6.40;;;2.93;;
305;SDS011;137;48.578;9.180;2022-08-21T10:11:49;3.70;;;2.73;;
305;SDS011;137;48.578;9.180;2022-08-21T10:14:23;4.87;;;2.93;;
305;SDS011;137;48.578;9.180;2022-08-21T10:17:04;3.73;;;2.73;;
305;SDS011;137;48.578;9.180;2022-08-21T10:19:41;7.40;;;3.40;;
305;SDS011;137;48.578;9.180;2022-08-21T10:22:15;4.47;;;2.80;;
305;SDS011;137;48.578;9.180;2022-08-21T10:24:52;3.00;;;2.27;;
305;SDS011;137;48.578;9.180;2022-08-21T10:27:27;2.90;;;1.97;;
305;SDS011;137;48.578;9.180;2022-08-21T10:30:04;4.20;;;2.87;;
305;SDS011;137;48.578;9.180;2022-08-21T10:35:26;4.67;;;3.17;;
305;SDS011;137;48.578;9.180;2022-08-21T10:38:16;4.73;;;2.47;;
305;SDS011;137;48.578;9.180;2022-08-21T10:41:03;3.40;;;2.40;;
305;SDS011;137;48.578;9.180;2022-08-21T10:43:38;2.83;;;2.63;;
305;SDS011;137;48.578;9.180;2022-08-21T10:46:17;4.43;;;2.33;;
305;SDS011;137;48.578;9.180;2022-08-21T10:48:53;3.80;;;2.27;;
305;SDS011;137;48.578;9.180;2022-08-21T10:51:24;2.30;;;2.10;;
305;SDS011;137;48.578;9.180;2022-08-21T10:53:59;3.67;;;2.50;;
305;SDS011;137;48.578;9.180;2022-08-21T10:56:32;4.63;;;3.60;;
305;SDS011;137;48.578;9.180;2022-08-21T10:59:04;5.17;;;2.60;;
305;SDS011;137;48.578;9.180;2022-08-21T11:01:44;4.23;;;2.30;;
305;SDS011;137;48.578;9.180;2022-08-21T11:04:19;2.93;;;2.27;;
305;SDS011;137;48.578;9.180;2022-08-21T11:06:53;4.10;;;2.77;;
305;SDS011;137;48.578;9.180;2022-08-21T11:09:25;4.10;;;2.93;;
305;SDS011;137;48.578;9.180;2022-08-21T11:11:54;3.33;;;3.03;;
305;SDS011;137;48.578;9.180;2022-08-21T11:14:29;4.50;;;3.00;;
305;SDS011;137;48.578;9.180;2022-08-21T11:17:01;3.07;;;2.70;;
305;SDS011;137;48.578;9.180;2022-08-21T11:19:38;2.47;;;2.27;;
305;SDS011;137;48.578;9.180;2022-08-21T11:22:13;7.17;;;3.00;;
305;SDS011;137;48.578;9.180;2022-08-21T11:24:44;3.10;;;2.37;;
305;SDS011;137;48.578;9.180;2022-08-21T11:27:18;3.10;;;2.57;;
305;SDS011;137;48.578;9.180;2022-08-21T11:29:49;3.23;;;2.20;;
305;SDS011;137;48.578;9.180;2022-08-21T11:32:24;2.20;;;2.00;;
305;SDS011;137;48.578;9.180;2022-08-21T11:35:10;3.10;;;2.80;;
305;SDS011;137;48.578;9.180;2022-08-21T11:37:47;3.57;;;2.40;;
305;SDS011;137;48.578;9.180;2022-08-21T11:40:24;4.80;;;2.97;;
305;SDS011;137;48.578;9.180;2022-08-21T11:43:02;4.30;;;2.77;;
305;SDS011;137;48.578;9.180;2022-08-21T11:45:37;3.67;;;2.93;;
305;SDS011;137;48.578;9.180;2022-08-21T11:48:16;4.10;;;2.70;;
305;SDS011;137;48.578;9.180;2022-08-21T11:51:07;2.13;;;1.90;;
305;SDS011;137;48.578;9.180;2022-08-21T11:53:38;2.40;;;2.20;;
305;SDS011;137;48.578;9.180;2022-08-21T11:56:16;4.93;;;2.70;;
305;SDS011;137;48.578;9.180;2022-08-21T11:58:46;4.63;;;2.40;;
305;SDS011;137;48.578;9.180;2022-08-21T12:01:16;3.80;;;1.90;;
305;SDS011;137;48.578;9.180;2022-08-21T12:03:51;2.60;;;2.40;;
305;SDS011;137;48.578;9.180;2022-08-21T12:06:29;2.00;;;1.80;;
305;SDS011;137;48.578;9.180;2022-08-21T12:08:59;3.70;;;2.30;;
305;SDS011;137;48.578;9.180;2022-08-21T12:11:27;5.63;;;2.27;;
305;SDS011;137;48.578;9.180;2022-08-21T12:13:55;3.00;;;2.50;;
305;SDS011;137;48.578;9.180;2022-08-21T12:16:28;5.80;;;3.00;;
305;SDS011;137;48.578;9.180;2022-08-21T12:19:02;2.20;;;2.00;;
305;SDS011;137;48.578;9.180;2022-08-21T12:21:31;3.40;;;2.00;;
305;SDS011;137;48.578;9.180;2022-08-21T12:24:00;2.40;;;1.50;;
305;SDS011;137;48.578;9.180;2022-08-21T12:26:30;2.50;;;2.17;;
305;SDS011;137;48.578;9.180;2022-08-21T12:29:05;2.07;;;1.80;;
305;SDS011;137;48.578;9.180;2022-08-21T12:31:49;2.00;;;1.80;;
305;SDS011;137;48.578;9.180;2022-08-21T12:34:17;2.27;;;1.73;;
305;SDS011;137;48.578;9.180;2022-08-21T12:36:59;3.00;;;1.70;;
305;SDS011;137;48.578;9.180;2022-08-21T12:39:30;2.47;;;2.00;;
305;SDS011;137;48.578;9.180;2022-08-21T12:42:00;2.40;;;1.93;;
305;SDS011;137;48.578;9.180;2022-08-21T12:44:34;3.03;;;1.80;;
305;SDS011;137;48.578;9.180;2022-08-21T12:47:11;1.90;;;1.50;;
305;SDS011;137;48.578;9.180;2022-08-21T12:49:43;4.03;;;2.23;;
305;SDS011;137;48.578;9.180;2022-08-21T12:52:20;2.83;;;2.00;;
305;SDS011;137;48.578;9.180;2022-08-21T12:54:49;2.73;;;2.30;;
305;SDS011;137;48.578;9.180;2022-08-21T12:57:18;4.13;;;3.07;;
305;SDS011;137;48.578;9.180;2022-08-21T12:59:50;2.77;;;2.13;;
305;SDS011;137;48.578;9.180;2022-08-21T13:02:19;2.40;;;2.20;;
305;SDS011;137;48.578;9.180;2022-08-21T13:04:49;2.40;;;1.90;;
305;SDS011;137;48.578;9.180;2022-08-21T13:07:22;4.27;;;1.93;;
305;SDS011;137;48.578;9.180;2022-08-21T13:09:54;3.40;;;1.90;;
305;SDS011;137;48.578;9.180;2022-08-21T13:12:26;2.20;;;1.97;;
305;SDS011;137;48.578;9.180;2022-08-21T13:14:55;2.33;;;2.13;;
305;SDS011;137;48.578;9.180;2022-08-21T13:17:24;3.83;;;1.87;;
305;SDS011;137;48.578;9.180;2022-08-21T13:19:53;1.97;;;1.77;;
305;SDS011;137;48.578;9.180;2022-08-21T13:22:26;2.90;;;2.33;;
305;SDS011;137;48.578;9.180;2022-08-21T13:24:54;2.30;;;1.93;;
305;SDS011;137;48.578;9.180;2022-08-21T13:27:22;2.80;;;2.00;;
305;SDS011;137;48.578;9.180;2022-08-21T13:30:06;2.00;;;1.80;;
305;SDS011;137;48.578;9.180;2022-08-21T13:32:36;4.00;;;2.17;;
305;SDS011;137;48.578;9.180;2022-08-21T13:35:09;2.10;;;1.90;;
305;SDS011;137;48.578;9.180;2022-08-21T13:37:43;2.60;;;1.70;;
305;SDS011;137;48.578;9.180;2022-08-21T13:40:12;2.20;;;2.00;;
305;SDS011;137;48.578;9.180;2022-08-21T13:42:43;2.87;;;1.90;;
305;SDS011;137;48.578;9.180;2022-08-21T13:45:13;3.97;;;2.07;;
305;SDS011;137;48.578;9.180;2022-08-21T13:47:43;2.73;;;1.80;;
305;SDS011;137;48.578;9.180;2022-08-21T13:50:13;2.47;;;1.97;;
305;SDS011;137;48.578;9.180;2022-08-21T13:52:55;2.30;;;2.10;;
305;SDS011;137;48.578;9.180;2022-08-21T13:55:24;2.80;;;1.73;;
305;SDS011;137;48.578;9.180;2022-08-21T13:58:00;2.37;;;2.17;;
305;SDS011;137;48.578;9.180;2022-08-21T14:00:29;5.13;;;2.50;;
305;SDS011;137;48.578;9.180;2022-08-21T14:03:00;2.83;;;1.80;;
305;SDS011;137;48.578;9.180;2022-08-21T14:05:32;2.40;;;2.20;;
305;SDS011;137;48.578;9.180;2022-08-21T14:08:04;2.30;;;1.80;;
305;SDS011;137;48.578;9.180;2022-08-21T14:10:36;2.80;;;1.90;;
305;SDS011;137;48.578;9.180;2022-08-21T14:13:07;4.03;;;1.93;;
305;SDS011;137;48.578;9.180;2022-08-21T14:15:47;1.97;;;1.77;;
305;SDS011;137;48.578;9.180;2022-08-21T14:18:20;2.40;;;2.03;;
305;SDS011;137;48.578;9.180;2022-08-21T14:20:50;3.03;;;2.07;;
305;SDS011;137;48.578;9.180;2022-08-21T14:23:24;2.27;;;1.80;;
305;SDS011;137;48.578;9.180;2022-08-21T14:25:52;2.73;;;1.83;;
305;SDS011;137;48.578;9.180;2022-08-21T14:28:25;3.17;;;2.00;;
305;SDS011;137;48.578;9.180;2022-08-21T14:30:54;2.27;;;2.00;;
305;SDS011;137;48.578;9.180;2022-08-21T14:33:23;3.00;;;1.80;;
305;SDS011;137;48.578;9.180;2022-08-21T14:35:52;3.20;;;2.37;;
305;SDS011;137;48.578;9.180;2022-08-21T14:38:20;2.83;;;2.63;;
305;SDS011;137;48.578;9.180;2022-08-21T14:40:52;2.20;;;1.87;;
305;SDS011;137;48.578;9.180;2022-08-21T14:43:20;2.63;;;2.10;;
305;SDS011;137;48.578;9.180;2022-08-21T14:45:47;2.87;;;2.07;;
305;SDS011;137;48.578;9.180;2022-08-21T14:48:14;3.13;;;2.10;;
305;SDS011;137;48.578;9.180;2022-08-21T14:50:41;3.13;;;2.77;;
305;SDS011;137;48.578;9.180;2022-08-21T14:53:08;2.80;;;2.33;;
305;SDS011;137;48.578;9.180;2022-08-21T14:55:36;2.03;;;1.83;;
305;SDS011;137;48.578;9.180;2022-08-21T14:58:19;2.77;;;1.67;;
305;SDS011;137;48.578;9.180;2022-08-21T15:00:47;3.10;;;2.03;;
305;SDS011;137;48.578;9.180;2022-08-21T15:03:15;2.63;;;1.70;;
305;SDS011;137;48.578;9.180;2022-08-21T15:05:42;2.93;;;2.00;;
305;SDS011;137;48.578;9.180;2022-08-21T15:08:09;2.40;;;2.20;;
305;SDS011;137;48.578;9.180;2022-08-21T15:10:36;2.40;;;2.20;;
305;SDS011;137;48.578;9.180;2022-08-21T15:13:03;6.30;;;3.30;;
305;SDS011;137;48.578;9.180;2022-08-21T15:15:32;2.17;;;1.80;;
305;SDS011;137;48.578;9.180;2022-08-21T15:18:04;3.43;;;1.93;;
305;SDS011;137;48.578;9.180;2022-08-21T15:20:31;3.47;;;2.27;;
305;SDS011;137;48.578;9.180;2022-08-21T15:22:58;2.23;;;2.00;;
305;SDS011;137;48.578;9.180;2022-08-21T15:25:25;2.40;;;2.00;;
305;SDS011;137;48.578;9.180;2022-08-21T15:27:52;3.50;;;2.20;;
305;SDS011;137;48.578;9.180;2022-08-21T15:30:19;4.00;;;2.60;;
305;SDS011;137;48.578;9.180;2022-08-21T15:32:47;2.40;;;2.03;;
305;SDS011;137;48.578;9.180;2022-08-21T15:35:14;3.10;;;2.20;;
305;SDS011;137;48.578;9.180;2022-08-21T15:37:41;3.90;;;2.10;;
305;SDS011;137;48.578;9.180;2022-08-21T15:40:08;2.83;;;2.03;;
305;SDS011;137;48.578;9.180;2022-08-21T15:42:37;2.77;;;2.23;;
305;SDS011;137;48.578;9.180;2022-08-21T15:45:05;3.43;;;2.20;;
305;SDS011;137;48.578;9.180;2022-08-21T15:47:34;3.17;;;2.07;;
305;SDS011;137;48.578;9.180;2022-08-21T15:50:05;4.80;;;3.10;;
305;SDS011;137;48.578;9.180;2022-08-21T15:52:34;3.03;;;2.50;;
305;SDS011;137;48.578;9.180;2022-08-21T15:55:01;3.13;;;2.33;;
305;SDS011;137;48.578;9.180;2022-08-21T15:57:28;2.83;;;2.37;;
305;SDS011;137;48.578;9.180;2022-08-21T15:59:56;2.70;;;2.17;;
305;SDS011;137;48.578;9.180;2022-08-21T16:02:29;3.83;;;2.23;;